createdAt,value
2018-06-04T00:00:41.438Z,17.80
2018-06-04T00:03:10.460Z,17.70
2018-06-04T00:05:39.496Z,17.60
2018-06-04T00:08:08.532Z,17.70
2018-06-04T00:10:37.582Z,17.70
2018-06-04T00:13:06.665Z,17.60
2018-06-04T00:15:35.736Z,17.60
2018-06-04T00:18:04.777Z,17.50
2018-06-04T00:20:33.831Z,17.40
2018-06-04T00:23:02.824Z,17.30
2018-06-04T00:25:31.925Z,17.30
2018-06-04T00:28:00.995Z,17.30
2018-06-04T00:30:29.995Z,17.20
2018-06-04T00:32:59.077Z,17.10
2018-06-04T00:35:28.155Z,17.20
2018-06-04T00:37:57.332Z,17.00
2018-06-04T00:40:26.360Z,17.00
2018-06-04T00:42:55.372Z,16.90
2018-06-04T00:45:24.395Z,17.00
2018-06-04T00:47:53.420Z,16.90
2018-06-04T00:50:22.465Z,16.90
2018-06-04T00:52:51.444Z,17.00
2018-06-04T00:55:20.448Z,16.80
2018-06-04T00:57:49.552Z,16.80
2018-06-04T01:00:18.628Z,16.80
2018-06-04T01:02:47.651Z,16.70
2018-06-04T01:05:16.651Z,16.60
2018-06-04T01:07:45.691Z,16.40
2018-06-04T01:10:14.786Z,16.30
2018-06-04T01:12:43.842Z,16.30
2018-06-04T01:15:12.842Z,16.40
2018-06-04T01:17:41.944Z,16.40
2018-06-04T01:20:10.951Z,16.50
2018-06-04T01:22:40.148Z,16.40
2018-06-04T01:25:09.356Z,16.40
2018-06-04T01:27:38.362Z,16.20
2018-06-04T01:30:07.542Z,16.30
2018-06-04T01:32:36.604Z,16.30
2018-06-04T01:35:05.653Z,16.20
2018-06-04T01:37:34.672Z,16.10
2018-06-04T01:40:03.714Z,16.20
2018-06-04T01:42:32.760Z,16.20
2018-06-04T01:45:01.797Z,16.20
2018-06-04T01:47:30.803Z,16.20
2018-06-04T01:49:59.826Z,16.10
2018-06-04T01:52:29.367Z,16.10
2018-06-04T01:54:58.445Z,15.90
2018-06-04T01:57:27.503Z,15.80
2018-06-04T01:59:56.536Z,15.90
2018-06-04T02:02:25.603Z,15.90
2018-06-04T02:04:54.720Z,15.90
2018-06-04T02:07:23.804Z,15.90
2018-06-04T02:09:53.026Z,15.90
2018-06-04T02:12:22.104Z,15.90
2018-06-04T02:14:51.187Z,15.80
2018-06-04T02:17:20.469Z,15.80
2018-06-04T02:19:49.632Z,15.80
2018-06-04T02:22:18.757Z,15.80
2018-06-04T02:24:47.839Z,15.80
2018-06-04T02:27:16.850Z,15.80
2018-06-04T02:29:45.863Z,15.90
2018-06-04T02:32:14.908Z,15.90
2018-06-04T02:34:44.084Z,15.70
2018-06-04T02:37:13.210Z,15.60
2018-06-04T02:39:42.422Z,15.40
2018-06-04T02:42:11.432Z,15.50
2018-06-04T02:44:40.467Z,15.50
2018-06-04T02:47:09.648Z,15.60
2018-06-04T02:49:38.684Z,15.50
2018-06-04T02:52:07.748Z,15.50
2018-06-04T02:54:36.791Z,15.50
2018-06-04T02:57:05.813Z,15.40
2018-06-04T02:59:34.848Z,15.40
2018-06-04T03:02:03.884Z,15.30
2018-06-04T03:04:32.928Z,15.30
2018-06-04T03:07:01.955Z,15.40
2018-06-04T03:09:31.009Z,15.40
2018-06-04T03:11:59.995Z,15.40
2018-06-04T03:14:29.027Z,15.40
2018-06-04T03:16:58.072Z,15.40
2018-06-04T03:19:27.114Z,15.40
2018-06-04T03:21:56.136Z,15.30
2018-06-04T03:24:25.147Z,15.30
2018-06-04T03:26:54.175Z,15.30
2018-06-04T03:29:23.251Z,15.40
2018-06-04T03:31:52.320Z,15.30
2018-06-04T03:34:28.061Z,15.30
2018-06-04T03:36:57.056Z,15.30
2018-06-04T03:39:26.075Z,15.30
2018-06-04T03:41:55.243Z,15.40
2018-06-04T03:44:24.335Z,15.40
2018-06-04T03:46:53.628Z,15.30
2018-06-04T03:49:22.715Z,15.20
2018-06-04T03:51:51.917Z,15.20
2018-06-04T03:54:20.959Z,15.10
2018-06-04T03:56:50.036Z,15.10
2018-06-04T03:59:19.035Z,15.00
2018-06-04T04:01:48.184Z,15.00
2018-06-04T04:04:17.220Z,14.90
2018-06-04T04:06:46.240Z,15.00
2018-06-04T04:09:16.235Z,15.10
2018-06-04T04:11:45.363Z,15.10
2018-06-04T04:14:14.436Z,15.10
2018-06-04T04:16:43.483Z,15.10
2018-06-04T04:19:12.591Z,15.10
2018-06-04T04:21:41.640Z,15.00
2018-06-04T04:24:10.763Z,15.10
2018-06-04T04:26:39.779Z,15.20
2018-06-04T04:29:08.828Z,15.40
2018-06-04T04:31:37.900Z,15.50
2018-06-04T04:34:07.028Z,15.50
2018-06-04T04:36:36.095Z,15.50
2018-06-04T04:39:08.034Z,15.70
2018-06-04T04:41:37.057Z,15.80
2018-06-04T04:44:06.084Z,15.90
2018-06-04T04:46:35.173Z,16.00
2018-06-04T04:49:04.208Z,16.10
2018-06-04T04:51:33.223Z,16.30
2018-06-04T04:54:02.426Z,16.30
2018-06-04T04:56:31.460Z,16.40
2018-06-04T04:59:00.601Z,16.50
2018-06-04T05:01:29.604Z,16.60
2018-06-04T05:03:58.673Z,16.60
2018-06-04T05:06:27.680Z,16.70
2018-06-04T05:08:56.784Z,16.80
2018-06-04T05:11:25.795Z,16.80
2018-06-04T05:13:54.847Z,17.00
2018-06-04T05:16:24.056Z,17.20
2018-06-04T05:18:53.216Z,17.30
2018-06-04T05:21:22.232Z,17.40
2018-06-04T05:23:51.244Z,17.50
2018-06-04T05:26:20.248Z,17.50
2018-06-04T05:28:49.312Z,17.40
2018-06-04T05:31:18.471Z,17.60
2018-06-04T05:33:47.499Z,17.80
2018-06-04T05:36:16.547Z,17.80
2018-06-04T05:38:45.555Z,17.80
2018-06-04T05:41:14.620Z,18.00
2018-06-04T05:43:43.674Z,18.10
2018-06-04T05:46:12.701Z,18.30
2018-06-04T05:48:41.772Z,18.40
2018-06-04T05:51:10.796Z,18.40
2018-06-04T05:53:39.816Z,18.60
2018-06-04T05:56:09.052Z,18.70
2018-06-04T05:58:38.016Z,18.80
2018-06-04T06:01:07.087Z,18.90
2018-06-04T06:03:36.098Z,18.90
2018-06-04T06:06:05.179Z,19.00
2018-06-04T06:08:34.232Z,19.10
2018-06-04T06:11:03.255Z,19.20
2018-06-04T06:13:32.311Z,19.30
2018-06-04T06:16:01.464Z,19.30
2018-06-04T06:18:30.508Z,19.40
2018-06-04T06:20:59.584Z,19.50
2018-06-04T06:23:28.627Z,19.70
2018-06-04T06:25:57.675Z,20.00
2018-06-04T06:28:26.712Z,20.20
2018-06-04T06:30:55.748Z,20.60
2018-06-04T06:33:24.873Z,21.30
2018-06-04T06:35:53.944Z,22.30
2018-06-04T06:38:22.999Z,23.50
2018-06-04T06:40:52.027Z,24.60
2018-06-04T06:43:21.071Z,25.30
2018-06-04T06:45:50.323Z,26.10
2018-06-04T06:48:19.381Z,26.70
2018-06-04T06:50:48.375Z,26.80
2018-06-04T06:53:17.380Z,26.70
2018-06-04T06:55:46.396Z,26.80
2018-06-04T06:58:15.471Z,26.70
2018-06-04T07:00:44.488Z,27.20
2018-06-04T07:03:13.684Z,27.80
2018-06-04T07:05:42.719Z,27.70
2018-06-04T07:08:11.801Z,28.40
2018-06-04T07:10:40.911Z,28.60
2018-06-04T07:13:10.043Z,28.80
2018-06-04T07:15:39.068Z,28.70
2018-06-04T07:18:08.146Z,28.90
2018-06-04T07:20:37.200Z,29.60
2018-06-04T07:23:06.263Z,30.20
2018-06-04T07:25:35.356Z,30.00
2018-06-04T07:28:04.459Z,30.10
2018-06-04T07:30:33.488Z,30.20
2018-06-04T07:33:02.604Z,30.50
2018-06-04T07:35:33.571Z,31.20
2018-06-04T07:38:02.707Z,31.40
2018-06-04T07:40:31.917Z,31.60
2018-06-04T07:43:01.009Z,31.50
2018-06-04T07:45:30.061Z,31.60
2018-06-04T07:47:59.258Z,30.90
2018-06-04T07:50:28.315Z,31.00
2018-06-04T07:52:57.457Z,30.60
2018-06-04T07:55:26.528Z,31.00
2018-06-04T07:57:55.758Z,32.00
2018-06-04T08:00:24.867Z,31.30
2018-06-04T08:02:53.891Z,31.90
2018-06-04T08:05:22.940Z,32.30
2018-06-04T08:07:51.955Z,31.20
2018-06-04T08:10:21.013Z,31.20
2018-06-04T08:12:50.036Z,31.20
2018-06-04T08:15:19.110Z,31.80
2018-06-04T08:17:48.138Z,32.90
2018-06-04T08:20:17.179Z,30.60
2018-06-04T08:22:46.257Z,32.20
2018-06-04T08:25:15.350Z,32.90
2018-06-04T08:27:44.358Z,33.00
2018-06-04T08:30:13.425Z,33.30
2018-06-04T08:32:42.488Z,32.30
2018-06-04T08:35:11.555Z,33.60
2018-06-04T08:37:40.614Z,32.70
2018-06-04T08:40:09.661Z,33.30
2018-06-04T08:42:38.709Z,33.20
2018-06-04T08:45:07.748Z,33.70
2018-06-04T08:47:37.083Z,32.70
2018-06-04T08:50:06.177Z,34.40
2018-06-04T08:52:35.226Z,33.90
2018-06-04T08:55:04.289Z,32.40
2018-06-04T08:57:33.367Z,31.80
2018-06-04T09:00:02.474Z,32.00
2018-06-04T09:02:31.511Z,33.10
2018-06-04T09:05:00.700Z,32.90
2018-06-04T09:07:29.796Z,32.20
2018-06-04T09:09:59.014Z,30.10
2018-06-04T09:12:28.015Z,28.90
2018-06-04T09:14:57.115Z,29.70
2018-06-04T09:17:26.171Z,28.50
2018-06-04T09:19:55.239Z,27.60
2018-06-04T09:22:24.307Z,27.70
2018-06-04T09:24:53.392Z,27.90
2018-06-04T09:27:22.496Z,28.60
2018-06-04T09:29:51.523Z,28.80
2018-06-04T09:32:20.663Z,27.60
2018-06-04T09:34:49.809Z,27.30
2018-06-04T09:37:18.856Z,27.70
2018-06-04T09:39:47.892Z,27.50
2018-06-04T09:42:16.978Z,27.60
2018-06-04T09:44:46.035Z,28.10
2018-06-04T09:47:15.184Z,28.00
2018-06-04T09:49:44.919Z,28.20
2018-06-04T09:52:13.990Z,28.40
2018-06-04T09:54:43.105Z,28.30
2018-06-04T09:57:12.143Z,28.40
2018-06-04T09:59:41.167Z,28.10
2018-06-04T10:02:10.215Z,27.70
2018-06-04T10:04:39.239Z,27.90
2018-06-04T10:07:08.356Z,28.10
2018-06-04T10:09:37.380Z,28.40
2018-06-04T10:12:06.414Z,28.50
2018-06-04T10:14:35.470Z,28.10
2018-06-04T10:17:04.567Z,27.50
2018-06-04T10:19:33.629Z,27.50
2018-06-04T10:22:02.639Z,27.50
2018-06-04T10:24:31.683Z,27.40
2018-06-04T10:27:00.784Z,27.10
2018-06-04T10:29:29.854Z,27.20
2018-06-04T10:31:58.889Z,26.70
2018-06-04T10:34:27.877Z,26.60
2018-06-04T10:36:56.898Z,26.60
2018-06-04T10:39:25.946Z,26.70
2018-06-04T10:41:54.979Z,26.70
2018-06-04T10:44:24.119Z,26.90
2018-06-04T10:46:53.147Z,27.30
2018-06-04T10:49:22.172Z,27.50
2018-06-04T10:51:51.233Z,27.60
2018-06-04T10:54:20.326Z,27.40
2018-06-04T10:56:49.442Z,27.50
2018-06-04T10:59:18.464Z,27.40
2018-06-04T11:01:47.476Z,27.10
2018-06-04T11:04:16.605Z,27.30
2018-06-04T11:06:45.608Z,27.50
2018-06-04T11:09:14.619Z,27.30
2018-06-04T11:11:43.648Z,27.60
2018-06-04T11:14:12.733Z,27.30
2018-06-04T11:16:41.728Z,26.80
2018-06-04T11:19:10.787Z,27.00
2018-06-04T11:21:39.835Z,27.30
2018-06-04T11:24:08.950Z,27.10
2018-06-04T11:26:38.007Z,26.90
2018-06-04T11:29:07.094Z,26.50
2018-06-04T11:31:36.112Z,26.40
2018-06-04T11:34:05.353Z,26.80
2018-06-04T11:36:34.392Z,27.10
2018-06-04T11:39:03.721Z,27.50
2018-06-04T11:41:32.729Z,27.70
2018-06-04T11:44:01.925Z,27.30
2018-06-04T11:46:30.991Z,27.50
2018-06-04T11:49:00.002Z,27.70
2018-06-04T11:51:29.016Z,27.90
2018-06-04T11:53:58.118Z,28.00
2018-06-04T11:56:27.220Z,27.80
2018-06-04T11:58:56.242Z,27.50
2018-06-04T12:01:25.296Z,27.30
2018-06-04T12:03:54.438Z,27.50
2018-06-04T12:06:24.066Z,27.60
2018-06-04T12:08:53.083Z,27.40
2018-06-04T12:11:22.177Z,27.00
2018-06-04T12:13:51.440Z,27.50
2018-06-04T12:16:20.510Z,27.90
2018-06-04T12:18:49.544Z,28.20
2018-06-04T12:21:18.568Z,28.70
2018-06-04T12:23:47.780Z,29.20
2018-06-04T12:26:17.153Z,29.40
2018-06-04T12:28:46.177Z,30.10
2018-06-04T12:31:15.423Z,29.90
2018-06-04T12:33:45.677Z,30.10
2018-06-04T12:36:14.753Z,29.50
2018-06-04T12:38:43.843Z,28.60
2018-06-04T12:41:12.929Z,28.70
2018-06-04T12:43:41.971Z,28.20
2018-06-04T12:46:11.007Z,28.00
2018-06-04T12:48:40.099Z,28.70
2018-06-04T12:51:09.099Z,29.30
2018-06-04T12:53:38.121Z,29.50
2018-06-04T12:56:07.141Z,29.30
2018-06-04T12:58:36.110Z,29.30
2018-06-04T13:01:05.401Z,29.10
2018-06-04T13:03:34.424Z,29.30
2018-06-04T13:06:03.482Z,29.60
2018-06-04T13:08:32.552Z,29.10
2018-06-04T13:11:01.619Z,28.70
2018-06-04T13:13:30.695Z,28.10
2018-06-04T13:15:59.764Z,27.80
2018-06-04T13:18:28.804Z,27.40
2018-06-04T13:20:57.869Z,27.50
2018-06-04T13:23:26.883Z,27.30
2018-06-04T13:25:55.922Z,28.50
2018-06-04T13:28:24.995Z,29.00
2018-06-04T13:30:54.089Z,30.30
2018-06-04T13:33:23.119Z,29.50
2018-06-04T13:35:52.108Z,30.40
2018-06-04T13:38:21.150Z,31.20
2018-06-04T13:40:50.162Z,32.40
2018-06-04T13:43:19.184Z,33.70
2018-06-04T13:45:48.380Z,33.70
2018-06-04T13:48:17.518Z,34.50
2018-06-04T13:50:46.587Z,35.00
2018-06-04T13:53:15.625Z,35.50
2018-06-04T13:55:44.619Z,36.00
2018-06-04T13:58:13.664Z,34.60
2018-06-04T14:00:42.698Z,35.50
2018-06-04T14:03:11.709Z,36.80
2018-06-04T14:05:40.781Z,37.90
2018-06-04T14:08:09.792Z,37.70
2018-06-04T14:10:38.775Z,37.30
2018-06-04T14:13:07.810Z,35.50
2018-06-04T14:15:36.827Z,36.30
2018-06-04T14:18:05.890Z,35.90
2018-06-04T14:20:34.929Z,35.70
2018-06-04T14:23:03.974Z,37.30
2018-06-04T14:25:32.939Z,37.90
2018-06-04T14:28:01.973Z,36.30
2018-06-04T14:30:31.055Z,35.40
2018-06-04T14:33:00.073Z,32.80
2018-06-04T14:35:29.073Z,32.60
2018-06-04T14:37:58.070Z,33.20
2018-06-04T14:40:27.102Z,34.80
2018-06-04T14:42:56.117Z,35.90
2018-06-04T14:45:25.170Z,36.60
2018-06-04T14:47:54.336Z,34.80
2018-06-04T14:50:23.346Z,35.90
2018-06-04T14:52:52.347Z,36.90
2018-06-04T14:55:21.435Z,36.00
2018-06-04T14:57:50.466Z,36.50
2018-06-04T15:00:19.559Z,35.80
2018-06-04T15:02:48.689Z,36.10
2018-06-04T15:05:17.822Z,35.90
2018-06-04T15:07:46.918Z,33.70
2018-06-04T15:10:15.914Z,33.40
2018-06-04T15:12:44.971Z,34.20
2018-06-04T15:15:14.144Z,35.00
2018-06-04T15:17:43.175Z,34.50
2018-06-04T15:20:12.200Z,33.50
2018-06-04T15:22:41.307Z,34.20
2018-06-04T15:25:10.299Z,33.20
2018-06-04T15:27:39.347Z,34.00
2018-06-04T15:30:08.347Z,35.10
2018-06-04T15:32:37.379Z,34.00
2018-06-04T15:35:07.139Z,32.80
2018-06-04T15:37:36.136Z,33.10
2018-06-04T15:40:05.692Z,34.10
2018-06-04T15:42:34.726Z,34.90
2018-06-04T15:45:03.737Z,33.90
2018-06-04T15:47:32.823Z,34.50
2018-06-04T15:50:01.901Z,35.10
2018-06-04T15:52:30.892Z,36.00
2018-06-04T15:54:59.920Z,35.30
2018-06-04T15:57:28.945Z,34.90
2018-06-04T15:59:57.923Z,32.60
2018-06-04T16:02:26.931Z,33.30
2018-06-04T16:04:55.935Z,33.70
2018-06-04T16:07:24.934Z,34.50
2018-06-04T16:09:53.939Z,34.20
2018-06-04T16:12:22.965Z,34.90
2018-06-04T16:14:51.992Z,33.40
2018-06-04T16:17:20.999Z,33.80
2018-06-04T16:19:50.011Z,34.10
2018-06-04T16:22:19.078Z,33.40
2018-06-04T16:24:48.099Z,33.40
2018-06-04T16:27:17.138Z,33.60
2018-06-04T16:29:46.143Z,33.40
2018-06-04T16:32:15.183Z,32.40
2018-06-04T16:34:44.315Z,32.10
2018-06-04T16:37:13.401Z,31.40
2018-06-04T16:39:42.474Z,31.00
2018-06-04T16:42:11.464Z,31.80
2018-06-04T16:44:40.647Z,31.90
2018-06-04T16:47:09.758Z,31.10
2018-06-04T16:49:38.774Z,31.10
2018-06-04T16:52:07.846Z,30.90
2018-06-04T16:54:36.927Z,30.60
2018-06-04T16:57:05.992Z,30.30
2018-06-04T16:59:35.036Z,29.80
2018-06-04T17:02:04.062Z,29.70
2018-06-04T17:04:33.066Z,29.40
2018-06-04T17:07:02.080Z,29.10
2018-06-04T17:09:31.083Z,29.30
2018-06-04T17:12:00.106Z,28.90
2018-06-04T17:14:29.187Z,28.40
2018-06-04T17:16:58.199Z,28.30
2018-06-04T17:19:27.202Z,28.30
2018-06-04T17:21:56.316Z,28.40
2018-06-04T17:24:25.503Z,28.00
2018-06-04T17:26:54.559Z,27.70
2018-06-04T17:29:23.570Z,27.30
2018-06-04T17:31:52.568Z,27.50
2018-06-04T17:34:21.734Z,27.40
2018-06-04T17:36:50.771Z,27.20
2018-06-04T17:39:19.783Z,27.10
2018-06-04T17:41:48.816Z,26.90
2018-06-04T17:44:17.842Z,27.00
2018-06-04T17:46:46.829Z,26.70
2018-06-04T17:49:16.032Z,26.70
2018-06-04T17:51:45.055Z,26.40
2018-06-04T17:54:14.071Z,26.60
2018-06-04T17:56:43.127Z,26.50
2018-06-04T17:59:12.149Z,26.30
2018-06-04T18:01:41.154Z,26.20
2018-06-04T18:04:10.356Z,26.40
2018-06-04T18:06:39.445Z,26.30
2018-06-04T18:09:09.251Z,26.40
2018-06-04T18:11:38.330Z,26.30
2018-06-04T18:14:07.470Z,26.30
2018-06-04T18:19:04.635Z,26.20
2018-06-04T18:21:33.643Z,26.30
2018-06-04T18:24:02.745Z,25.90
2018-06-04T18:26:31.763Z,26.00
2018-06-04T18:29:00.787Z,26.00
2018-06-04T18:31:29.828Z,25.80
2018-06-04T18:33:58.863Z,25.80
2018-06-04T18:36:27.872Z,25.90
2018-06-04T18:38:56.950Z,25.80
2018-06-04T18:41:25.999Z,25.80
2018-06-04T18:43:55.046Z,25.60
2018-06-04T18:46:24.054Z,25.70
2018-06-04T18:48:53.110Z,25.60
2018-06-04T18:51:22.295Z,25.60
2018-06-04T18:53:51.563Z,25.60
2018-06-04T18:56:20.600Z,25.50
2018-06-04T18:58:49.599Z,25.50
2018-06-04T19:01:18.624Z,25.50
2018-06-04T19:03:47.615Z,25.60
2018-06-04T19:06:16.861Z,25.60
2018-06-04T19:11:11.463Z,25.60
2018-06-04T19:13:40.478Z,25.40
2018-06-04T19:16:09.635Z,25.50
2018-06-04T19:18:38.644Z,25.40
2018-06-04T19:21:07.703Z,25.30
2018-06-04T19:23:36.703Z,25.30
2018-06-04T19:26:05.731Z,25.20
2018-06-04T19:28:34.811Z,25.10
2018-06-04T19:31:03.861Z,25.10
2018-06-04T19:33:32.847Z,25.00
2018-06-04T19:36:01.955Z,24.90
2018-06-04T19:38:31.044Z,24.90
2018-06-04T19:41:00.076Z,24.80
2018-06-04T19:43:29.095Z,24.80
2018-06-04T19:45:58.412Z,24.70
2018-06-04T19:48:27.432Z,24.70
2018-06-04T19:50:56.585Z,24.70
2018-06-04T19:53:25.807Z,24.60
2018-06-04T19:55:54.793Z,24.50
2018-06-04T19:58:23.823Z,24.40
2018-06-04T20:00:52.835Z,24.40
2018-06-04T20:03:22.039Z,24.40
2018-06-04T20:05:51.131Z,24.30
2018-06-04T20:08:20.114Z,24.30
2018-06-04T20:10:49.115Z,24.20
2018-06-04T20:13:18.109Z,24.00
2018-06-04T20:15:47.135Z,24.00
2018-06-04T20:18:16.151Z,24.00
2018-06-04T20:20:45.149Z,23.90
2018-06-04T20:23:14.166Z,23.80
2018-06-04T20:25:43.212Z,23.70
2018-06-04T20:28:12.231Z,23.70
2018-06-04T20:30:41.242Z,23.70
2018-06-04T20:33:10.293Z,23.60
2018-06-04T20:35:39.288Z,23.60
2018-06-04T20:38:08.295Z,23.60
2018-06-04T20:40:37.337Z,23.50
2018-06-04T20:43:06.393Z,23.50
2018-06-04T20:45:35.375Z,23.50
2018-06-04T20:48:05.614Z,23.40
2018-06-04T20:50:34.627Z,23.40
2018-06-04T20:53:03.734Z,23.30
2018-06-04T20:55:32.794Z,23.20
2018-06-04T20:58:01.812Z,23.10
2018-06-04T21:00:30.839Z,23.00
2018-06-04T21:02:59.863Z,22.90
2018-06-04T21:05:28.859Z,22.80
2018-06-04T21:07:57.931Z,22.70
2018-06-04T21:10:26.944Z,22.70
2018-06-04T21:12:55.999Z,22.50
2018-06-04T21:15:25.015Z,22.40
2018-06-04T21:17:54.007Z,22.10
2018-06-04T21:20:23.202Z,22.00
2018-06-04T21:22:52.206Z,21.80
2018-06-04T21:25:21.201Z,21.80
2018-06-04T21:27:50.199Z,21.80
2018-06-04T21:30:19.435Z,21.70
2018-06-04T21:32:48.431Z,21.70
2018-06-04T21:35:17.431Z,21.60
2018-06-04T21:37:46.454Z,21.70
2018-06-04T21:40:16.088Z,21.60
2018-06-04T21:42:45.088Z,21.50
2018-06-04T21:45:14.154Z,21.50
2018-06-04T21:47:43.263Z,21.40
2018-06-04T21:50:12.623Z,21.40
2018-06-04T21:52:41.618Z,21.40
2018-06-04T21:55:10.860Z,21.30
2018-06-04T21:57:39.887Z,21.30
2018-06-04T22:02:38.606Z,21.20
2018-06-04T22:05:07.664Z,21.20
2018-06-04T22:07:36.676Z,21.20
2018-06-04T22:10:06.355Z,20.90
2018-06-04T22:12:35.395Z,21.00
2018-06-04T22:17:33.032Z,21.00
2018-06-04T22:20:02.139Z,21.00
2018-06-04T22:22:31.140Z,21.00
2018-06-04T22:25:00.175Z,20.90
2018-06-04T22:27:29.211Z,20.80
2018-06-04T22:29:58.263Z,20.90
2018-06-04T22:32:27.443Z,20.90
2018-06-04T22:34:56.438Z,20.90
2018-06-04T22:37:25.440Z,20.80
2018-06-04T22:39:54.436Z,20.60
2018-06-04T22:42:23.439Z,20.60
2018-06-04T22:44:52.667Z,20.60
2018-06-04T22:47:21.679Z,20.60
2018-06-04T22:49:50.703Z,20.60
2018-06-04T22:52:19.707Z,20.60
2018-06-04T22:54:48.907Z,20.60
2018-06-04T22:57:17.860Z,20.50
2018-06-04T22:59:46.891Z,20.50
2018-06-04T23:02:15.899Z,20.50
2018-06-04T23:04:44.899Z,20.30
2018-06-04T23:07:13.924Z,20.30
2018-06-04T23:09:42.931Z,20.30
2018-06-04T23:12:11.975Z,20.30
2018-06-04T23:14:41.025Z,20.30
2018-06-04T23:17:10.084Z,20.20
2018-06-04T23:19:39.083Z,20.10
2018-06-04T23:22:08.078Z,20.00
2018-06-04T23:24:37.267Z,19.80
2018-06-04T23:27:06.271Z,19.70
2018-06-04T23:29:35.335Z,19.50
2018-06-04T23:32:04.503Z,19.50
2018-06-04T23:34:33.571Z,19.50
2018-06-04T23:37:02.595Z,19.40
2018-06-04T23:39:31.741Z,19.40
2018-06-04T23:42:00.785Z,19.40
2018-06-04T23:44:29.830Z,19.20
2018-06-04T23:46:58.879Z,19.10
2018-06-04T23:49:27.918Z,19.10
2018-06-04T23:51:56.963Z,19.00
2018-06-04T23:54:26.145Z,18.90
2018-06-04T23:56:55.174Z,19.00
2018-06-04T23:59:24.247Z,18.90
